sensor_id;sensor_type;location;lat;lon;timestamp;pressure;altitude;pressure_sealevel;temperature
28305;BMP280;15569;42.652;23.040;2023-09-08T00:01:50;93483.94;;;21.29
28305;BMP280;15569;42.652;23.040;2023-09-08T00:04:16;93482.44;;;21.22
28305;BMP280;15569;42.652;23.040;2023-09-08T00:06:41;93489.59;;;21.39
28305;BMP280;15569;42.652;23.040;2023-09-08T00:09:07;93489.66;;;21.43
28305;BMP280;15569;42.652;23.040;2023-09-08T00:11:33;93494.59;;;21.49
28305;BMP280;15569;42.652;23.040;2023-09-08T00:13:58;93492.53;;;21.49
28305;BMP280;15569;42.652;23.040;2023-09-08T00:16:24;93485.72;;;21.56
28305;BMP280;15569;42.652;23.040;2023-09-08T00:18:50;93489.22;;;21.61
28305;BMP280;15569;42.652;23.040;2023-09-08T00:21:15;93489.94;;;21.62
28305;BMP280;15569;42.652;23.040;2023-09-08T00:23:41;93485.81;;;21.65
28305;BMP280;15569;42.652;23.040;2023-09-08T00:26:06;93487.25;;;21.68
28305;BMP280;15569;42.652;23.040;2023-09-08T00:28:31;93493.97;;;21.54
28305;BMP280;15569;42.652;23.040;2023-09-08T00:30:58;93486.34;;;21.53
28305;BMP280;15569;42.652;23.040;2023-09-08T00:33:25;93483.47;;;21.03
28305;BMP280;15569;42.652;23.040;2023-09-08T00:35:50;93491.41;;;21.21
28305;BMP280;15569;42.652;23.040;2023-09-08T00:38:16;93487.53;;;20.96
28305;BMP280;15569;42.652;23.040;2023-09-08T00:40:42;93487.56;;;20.98
28305;BMP280;15569;42.652;23.040;2023-09-08T00:43:07;93480.78;;;21.05
28305;BMP280;15569;42.652;23.040;2023-09-08T00:45:38;93481.84;;;20.86
28305;BMP280;15569;42.652;23.040;2023-09-08T00:48:04;93490.59;;;20.75
28305;BMP280;15569;42.652;23.040;2023-09-08T00:50:30;93497.06;;;20.50
28305;BMP280;15569;42.652;23.040;2023-09-08T00:52:55;93473.78;;;20.23
28305;BMP280;15569;42.652;23.040;2023-09-08T00:55:21;93486.16;;;20.20
28305;BMP280;15569;42.652;23.040;2023-09-08T00:57:46;93487.16;;;20.38
28305;BMP280;15569;42.652;23.040;2023-09-08T01:00:12;93484.22;;;20.64
28305;BMP280;15569;42.652;23.040;2023-09-08T01:02:38;93492.81;;;20.82
28305;BMP280;15569;42.652;23.040;2023-09-08T01:05:03;93486.19;;;20.97
28305;BMP280;15569;42.652;23.040;2023-09-08T01:07:30;93484.19;;;21.04
28305;BMP280;15569;42.652;23.040;2023-09-08T01:09:56;93486.81;;;20.56
28305;BMP280;15569;42.652;23.040;2023-09-08T01:12:22;93480.34;;;20.79
28305;BMP280;15569;42.652;23.040;2023-09-08T01:14:47;93481.38;;;21.00
28305;BMP280;15569;42.652;23.040;2023-09-08T01:17:12;93481.88;;;20.88
28305;BMP280;15569;42.652;23.040;2023-09-08T01:19:38;93477.91;;;20.99
28305;BMP280;15569;42.652;23.040;2023-09-08T01:27:37;93475.19;;;21.03
28305;BMP280;15569;42.652;23.040;2023-09-08T01:30:06;93472.84;;;20.86
28305;BMP280;15569;42.652;23.040;2023-09-08T01:32:32;93474.44;;;20.99
28305;BMP280;15569;42.652;23.040;2023-09-08T01:34:58;93472.50;;;21.05
28305;BMP280;15569;42.652;23.040;2023-09-08T01:37:25;93472.88;;;20.88
28305;BMP280;15569;42.652;23.040;2023-09-08T01:39:50;93468.81;;;20.93
28305;BMP280;15569;42.652;23.040;2023-09-08T01:42:16;93448.00;;;20.88
28305;BMP280;15569;42.652;23.040;2023-09-08T01:44:42;93468.22;;;20.98
28305;BMP280;15569;42.652;23.040;2023-09-08T01:47:07;93468.31;;;21.04
28305;BMP280;15569;42.652;23.040;2023-09-08T01:49:33;93454.47;;;21.02
28305;BMP280;15569;42.652;23.040;2023-09-08T01:51:58;93445.91;;;20.86
28305;BMP280;15569;42.652;23.040;2023-09-08T01:54:24;93441.78;;;20.87
28305;BMP280;15569;42.652;23.040;2023-09-08T01:56:49;93450.88;;;20.94
28305;BMP280;15569;42.652;23.040;2023-09-08T01:59:16;93450.81;;;20.92
28305;BMP280;15569;42.652;23.040;2023-09-08T02:01:41;93443.06;;;20.82
28305;BMP280;15569;42.652;23.040;2023-09-08T02:04:07;93443.66;;;20.77
28305;BMP280;15569;42.652;23.040;2023-09-08T02:06:32;93447.13;;;20.77
28305;BMP280;15569;42.652;23.040;2023-09-08T02:08:58;93437.97;;;20.67
28305;BMP280;15569;42.652;23.040;2023-09-08T02:11:23;93447.63;;;20.66
28305;BMP280;15569;42.652;23.040;2023-09-08T02:13:48;93444.03;;;20.57
28305;BMP280;15569;42.652;23.040;2023-09-08T02:16:14;93446.78;;;20.57
28305;BMP280;15569;42.652;23.040;2023-09-08T02:18:43;93445.31;;;20.52
28305;BMP280;15569;42.652;23.040;2023-09-08T02:21:09;93439.81;;;20.52
28305;BMP280;15569;42.652;23.040;2023-09-08T02:23:34;93424.66;;;20.55
28305;BMP280;15569;42.652;23.040;2023-09-08T02:26:00;93431.66;;;20.62
28305;BMP280;15569;42.652;23.040;2023-09-08T02:28:25;93435.72;;;20.55
28305;BMP280;15569;42.652;23.040;2023-09-08T02:30:50;93432.13;;;20.49
28305;BMP280;15569;42.652;23.040;2023-09-08T02:33:16;93436.97;;;20.50
28305;BMP280;15569;42.652;23.040;2023-09-08T02:35:41;93439.09;;;20.52
28305;BMP280;15569;42.652;23.040;2023-09-08T02:38:07;93442.28;;;20.38
28305;BMP280;15569;42.652;23.040;2023-09-08T02:40:33;93430.75;;;20.50
28305;BMP280;15569;42.652;23.040;2023-09-08T02:43:00;93434.28;;;20.52
28305;BMP280;15569;42.652;23.040;2023-09-08T02:45:26;93421.72;;;20.45
28305;BMP280;15569;42.652;23.040;2023-09-08T02:47:51;93437.06;;;20.54
28305;BMP280;15569;42.652;23.040;2023-09-08T02:50:17;93437.75;;;20.53
28305;BMP280;15569;42.652;23.040;2023-09-08T02:52:43;93432.88;;;20.51
28305;BMP280;15569;42.652;23.040;2023-09-08T02:55:09;93421.72;;;20.47
28305;BMP280;15569;42.652;23.040;2023-09-08T02:57:34;93418.28;;;20.47
28305;BMP280;15569;42.652;23.040;2023-09-08T02:59:59;93424.56;;;20.51
28305;BMP280;15569;42.652;23.040;2023-09-08T03:02:25;93427.78;;;20.37
28305;BMP280;15569;42.652;23.040;2023-09-08T03:04:51;93420.72;;;20.28
28305;BMP280;15569;42.652;23.040;2023-09-08T03:07:16;93418.69;;;20.31
28305;BMP280;15569;42.652;23.040;2023-09-08T03:09:42;93432.50;;;20.31
28305;BMP280;15569;42.652;23.040;2023-09-08T03:12:07;93415.44;;;20.05
28305;BMP280;15569;42.652;23.040;2023-09-08T03:14:33;93418.44;;;20.17
28305;BMP280;15569;42.652;23.040;2023-09-08T03:16:58;93428.06;;;20.14
28305;BMP280;15569;42.652;23.040;2023-09-08T03:19:24;93425.28;;;20.14
28305;BMP280;15569;42.652;23.040;2023-09-08T03:21:49;93422.28;;;20.02
28305;BMP280;15569;42.652;23.040;2023-09-08T03:24:14;93425.28;;;20.14
28305;BMP280;15569;42.652;23.040;2023-09-08T03:26:40;93425.06;;;20.04
28305;BMP280;15569;42.652;23.040;2023-09-08T03:29:06;93426.53;;;20.07
28305;BMP280;15569;42.652;23.040;2023-09-08T03:31:31;93421.72;;;20.07
28305;BMP280;15569;42.652;23.040;2023-09-08T03:33:57;93433.34;;;20.04
28305;BMP280;15569;42.652;23.040;2023-09-08T03:36:22;93420.97;;;20.05
28305;BMP280;15569;42.652;23.040;2023-09-08T03:38:47;93430.81;;;20.14
28305;BMP280;15569;42.652;23.040;2023-09-08T03:41:13;93429.31;;;20.09
28305;BMP280;15569;42.652;23.040;2023-09-08T03:43:38;93433.34;;;20.04
28305;BMP280;15569;42.652;23.040;2023-09-08T03:46:04;93435.53;;;20.09
28305;BMP280;15569;42.652;23.040;2023-09-08T03:48:29;93438.88;;;20.04
28305;BMP280;15569;42.652;23.040;2023-09-08T03:50:54;93440.97;;;20.05
28305;BMP280;15569;42.652;23.040;2023-09-08T03:53:20;93441.69;;;20.06
28305;BMP280;15569;42.652;23.040;2023-09-08T03:55:45;93448.69;;;20.11
28305;BMP280;15569;42.652;23.040;2023-09-08T03:58:11;93444.59;;;20.14
28305;BMP280;15569;42.652;23.040;2023-09-08T04:00:36;93441.19;;;20.15
28305;BMP280;15569;42.652;23.040;2023-09-08T04:03:02;93441.13;;;20.13
28305;BMP280;15569;42.652;23.040;2023-09-08T04:05:27;93450.75;;;20.12
28305;BMP280;15569;42.652;23.040;2023-09-08T04:07:53;93449.91;;;20.04
28305;BMP280;15569;42.652;23.040;2023-09-08T04:10:18;93440.31;;;20.07
28305;BMP280;15569;42.652;23.040;2023-09-08T04:12:44;93446.66;;;20.13
28305;BMP280;15569;42.652;23.040;2023-09-08T04:15:10;93434.00;;;20.02
28305;BMP280;15569;42.652;23.040;2023-09-08T04:17:36;93445.25;;;20.12
28305;BMP280;15569;42.652;23.040;2023-09-08T04:20:03;93454.31;;;20.17
28305;BMP280;15569;42.652;23.040;2023-09-08T04:22:30;93451.47;;;20.13
28305;BMP280;15569;42.652;23.040;2023-09-08T04:24:55;93453.97;;;19.99
28305;BMP280;15569;42.652;23.040;2023-09-08T04:27:22;93462.91;;;19.99
28305;BMP280;15569;42.652;23.040;2023-09-08T04:29:48;93462.38;;;20.05
28305;BMP280;15569;42.652;23.040;2023-09-08T04:32:13;93463.88;;;20.12
28305;BMP280;15569;42.652;23.040;2023-09-08T04:34:39;93465.28;;;20.13
28305;BMP280;15569;42.652;23.040;2023-09-08T04:37:05;93464.63;;;20.14
28305;BMP280;15569;42.652;23.040;2023-09-08T04:39:31;93468.03;;;20.13
28305;BMP280;15569;42.652;23.040;2023-09-08T04:41:56;93465.19;;;20.09
28305;BMP280;15569;42.652;23.040;2023-09-08T04:44:22;93470.78;;;20.13
28305;BMP280;15569;42.652;23.040;2023-09-08T04:46:48;93470.19;;;20.16
28305;BMP280;15569;42.652;23.040;2023-09-08T04:49:13;93474.09;;;20.05
28305;BMP280;15569;42.652;23.040;2023-09-08T04:51:38;93472.84;;;20.12
28305;BMP280;15569;42.652;23.040;2023-09-08T04:54:04;93476.31;;;20.11
28305;BMP280;15569;42.652;23.040;2023-09-08T04:56:29;93472.41;;;20.24
28305;BMP280;15569;42.652;23.040;2023-09-08T04:58:55;93471.09;;;20.29
28305;BMP280;15569;42.652;23.040;2023-09-08T05:01:21;93473.25;;;20.32
28305;BMP280;15569;42.652;23.040;2023-09-08T05:03:46;93475.34;;;20.34
28305;BMP280;15569;42.652;23.040;2023-09-08T05:06:12;93471.31;;;20.39
28305;BMP280;15569;42.652;23.040;2023-09-08T05:08:39;93471.88;;;20.31
28305;BMP280;15569;42.652;23.040;2023-09-08T05:11:04;93485.06;;;20.37
28305;BMP280;15569;42.652;23.040;2023-09-08T05:13:30;93481.78;;;20.45
28305;BMP280;15569;42.652;23.040;2023-09-08T05:15:56;93487.66;;;20.65
28305;BMP280;15569;42.652;23.040;2023-09-08T05:18:28;93489.22;;;20.74
28305;BMP280;15569;42.652;23.040;2023-09-08T05:20:54;93483.16;;;20.83
28305;BMP280;15569;42.652;23.040;2023-09-08T05:23:19;93490.22;;;20.90
28305;BMP280;15569;42.652;23.040;2023-09-08T05:25:45;93483.97;;;20.92
28305;BMP280;15569;42.652;23.040;2023-09-08T05:28:10;93492.81;;;20.82
28305;BMP280;15569;42.652;23.040;2023-09-08T05:30:36;93486.91;;;20.60
28305;BMP280;15569;42.652;23.040;2023-09-08T05:33:01;93493.22;;;19.34
28305;BMP280;15569;42.652;23.040;2023-09-08T05:35:26;93496.59;;;19.03
28305;BMP280;15569;42.652;23.040;2023-09-08T05:37:52;93496.88;;;18.87
28305;BMP280;15569;42.652;23.040;2023-09-08T05:40:17;93505.88;;;19.15
28305;BMP280;15569;42.652;23.040;2023-09-08T05:45:18;93496.38;;;19.22
28305;BMP280;15569;42.652;23.040;2023-09-08T05:47:44;93493.22;;;19.64
28305;BMP280;15569;42.652;23.040;2023-09-08T05:50:09;93484.19;;;19.93
28305;BMP280;15569;42.652;23.040;2023-09-08T05:52:35;93499.72;;;20.10
28305;BMP280;15569;42.652;23.040;2023-09-08T05:55:00;93498.63;;;20.23
28305;BMP280;15569;42.652;23.040;2023-09-08T05:57:25;93498.03;;;20.28
28305;BMP280;15569;42.652;23.040;2023-09-08T05:59:51;93495.94;;;20.29
28305;BMP280;15569;42.652;23.040;2023-09-08T06:02:16;93496.13;;;20.37
28305;BMP280;15569;42.652;23.040;2023-09-08T06:04:41;93497.41;;;20.32
28305;BMP280;15569;42.652;23.040;2023-09-08T06:07:07;93493.00;;;20.55
28305;BMP280;15569;42.652;23.040;2023-09-08T06:09:32;93505.03;;;20.69
28305;BMP280;15569;42.652;23.040;2023-09-08T06:11:58;93505.75;;;20.72
28305;BMP280;15569;42.652;23.040;2023-09-08T06:14:23;93504.41;;;20.73
28305;BMP280;15569;42.652;23.040;2023-09-08T06:16:48;93508.78;;;20.86
28305;BMP280;15569;42.652;23.040;2023-09-08T06:19:14;93521.25;;;20.89
28305;BMP280;15569;42.652;23.040;2023-09-08T06:21:39;93516.53;;;20.95
28305;BMP280;15569;42.652;23.040;2023-09-08T06:24:05;93513.00;;;20.91
28305;BMP280;15569;42.652;23.040;2023-09-08T06:26:30;93529.75;;;21.01
28305;BMP280;15569;42.652;23.040;2023-09-08T06:28:55;93524.38;;;21.09
28305;BMP280;15569;42.652;23.040;2023-09-08T06:31:21;93530.41;;;20.97
28305;BMP280;15569;42.652;23.040;2023-09-08T06:33:46;93526.47;;;21.10
28305;BMP280;15569;42.652;23.040;2023-09-08T06:36:12;93538.84;;;21.05
28305;BMP280;15569;42.652;23.040;2023-09-08T06:38:38;93526.56;;;21.16
28305;BMP280;15569;42.652;23.040;2023-09-08T06:41:10;93533.66;;;21.27
28305;BMP280;15569;42.652;23.040;2023-09-08T06:43:36;93536.41;;;21.27
28305;BMP280;15569;42.652;23.040;2023-09-08T06:46:02;93521.16;;;21.24
28305;BMP280;15569;42.652;23.040;2023-09-08T06:48:27;93522.78;;;21.39
28305;BMP280;15569;42.652;23.040;2023-09-08T06:50:53;93522.25;;;21.51
28305;BMP280;15569;42.652;23.040;2023-09-08T06:53:19;93546.78;;;21.69
28305;BMP280;15569;42.652;23.040;2023-09-08T06:55:44;93539.81;;;21.68
28305;BMP280;15569;42.652;23.040;2023-09-08T06:58:10;93540.72;;;21.80
28305;BMP280;15569;42.652;23.040;2023-09-08T07:00:35;93534.38;;;21.74
28305;BMP280;15569;42.652;23.040;2023-09-08T07:03:01;93542.81;;;21.82
28305;BMP280;15569;42.652;23.040;2023-09-08T07:05:27;93544.28;;;21.89
28305;BMP280;15569;42.652;23.040;2023-09-08T07:07:52;93549.91;;;21.95
28305;BMP280;15569;42.652;23.040;2023-09-08T07:10:18;93544.50;;;22.05
28305;BMP280;15569;42.652;23.040;2023-09-08T07:12:43;93549.63;;;22.28
28305;BMP280;15569;42.652;23.040;2023-09-08T07:15:09;93547.72;;;22.41
28305;BMP280;15569;42.652;23.040;2023-09-08T07:17:34;93542.06;;;22.31
28305;BMP280;15569;42.652;23.040;2023-09-08T07:20:00;93549.69;;;22.30
28305;BMP280;15569;42.652;23.040;2023-09-08T07:22:25;93540.75;;;22.38
28305;BMP280;15569;42.652;23.040;2023-09-08T07:24:50;93532.41;;;22.34
28305;BMP280;15569;42.652;23.040;2023-09-08T07:27:16;93540.25;;;22.53
28305;BMP280;15569;42.652;23.040;2023-09-08T07:29:41;93545.19;;;22.63
28305;BMP280;15569;42.652;23.040;2023-09-08T07:32:07;93547.47;;;22.84
28305;BMP280;15569;42.652;23.040;2023-09-08T07:34:33;93551.66;;;22.81
28305;BMP280;15569;42.652;23.040;2023-09-08T07:37:00;93531.56;;;22.83
28305;BMP280;15569;42.652;23.040;2023-09-08T07:39:25;93548.88;;;22.81
28305;BMP280;15569;42.652;23.040;2023-09-08T07:41:50;93546.22;;;22.96
28305;BMP280;15569;42.652;23.040;2023-09-08T07:44:17;93531.00;;;23.03
28305;BMP280;15569;42.652;23.040;2023-09-08T07:46:42;93549.13;;;23.08
28305;BMP280;15569;42.652;23.040;2023-09-08T07:49:09;93542.66;;;22.83
28305;BMP280;15569;42.652;23.040;2023-09-08T07:51:34;93546.75;;;22.78
28305;BMP280;15569;42.652;23.040;2023-09-08T07:54:00;93537.16;;;22.89
28305;BMP280;15569;42.652;23.040;2023-09-08T07:56:27;93539.97;;;22.93
28305;BMP280;15569;42.652;23.040;2023-09-08T07:58:52;93548.31;;;22.95
28305;BMP280;15569;42.652;23.040;2023-09-08T08:01:17;93542.81;;;23.01
28305;BMP280;15569;42.652;23.040;2023-09-08T08:03:43;93538.78;;;23.14
28305;BMP280;15569;42.652;23.040;2023-09-08T08:06:08;93536.78;;;23.25
28305;BMP280;15569;42.652;23.040;2023-09-08T08:08:33;93544.50;;;23.38
28305;BMP280;15569;42.652;23.040;2023-09-08T08:11:10;93536.22;;;23.42
28305;BMP280;15569;42.652;23.040;2023-09-08T08:13:36;93528.56;;;23.35
28305;BMP280;15569;42.652;23.040;2023-09-08T08:16:01;93523.50;;;23.11
28305;BMP280;15569;42.652;23.040;2023-09-08T08:18:26;93543.03;;;23.25
28305;BMP280;15569;42.652;23.040;2023-09-08T08:20:52;93532.06;;;23.41
28305;BMP280;15569;42.652;23.040;2023-09-08T08:23:17;93532.09;;;23.45
28305;BMP280;15569;42.652;23.040;2023-09-08T08:25:42;93532.16;;;23.57
28305;BMP280;15569;42.652;23.040;2023-09-08T08:28:08;93518.88;;;23.42
28305;BMP280;15569;42.652;23.040;2023-09-08T08:30:33;93531.47;;;23.53
28305;BMP280;15569;42.652;23.040;2023-09-08T08:33:00;93523.59;;;23.23
28305;BMP280;15569;42.652;23.040;2023-09-08T08:35:26;93533.47;;;23.42
28305;BMP280;15569;42.652;23.040;2023-09-08T08:37:51;93527.88;;;23.40
28305;BMP280;15569;42.652;23.040;2023-09-08T08:40:16;93528.50;;;23.33
28305;BMP280;15569;42.652;23.040;2023-09-08T08:42:42;93519.19;;;22.94
28305;BMP280;15569;42.652;23.040;2023-09-08T08:45:09;93533.28;;;23.20
28305;BMP280;15569;42.652;23.040;2023-09-08T08:47:35;93524.94;;;23.20
28305;BMP280;15569;42.652;23.040;2023-09-08T08:50:01;93538.09;;;23.16
28305;BMP280;15569;42.652;23.040;2023-09-08T08:52:27;93529.94;;;23.32
28305;BMP280;15569;42.652;23.040;2023-09-08T08:54:53;93533.63;;;23.64
28305;BMP280;15569;42.652;23.040;2023-09-08T08:57:21;93518.47;;;23.89
28305;BMP280;15569;42.652;23.040;2023-09-08T08:59:48;93509.53;;;24.03
28305;BMP280;15569;42.652;23.040;2023-09-08T09:02:14;93515.00;;;23.93
28305;BMP280;15569;42.652;23.040;2023-09-08T09:04:40;93503.91;;;23.89
28305;BMP280;15569;42.652;23.040;2023-09-08T09:07:07;93504.75;;;24.17
28305;BMP280;15569;42.652;23.040;2023-09-08T09:09:32;93507.38;;;23.93
28305;BMP280;15569;42.652;23.040;2023-09-08T09:11:58;93486.63;;;24.06
28305;BMP280;15569;42.652;23.040;2023-09-08T09:14:23;93495.06;;;24.35
28305;BMP280;15569;42.652;23.040;2023-09-08T09:16:49;93509.59;;;24.19
28305;BMP280;15569;42.652;23.040;2023-09-08T09:19:20;93508.19;;;24.12
28305;BMP280;15569;42.652;23.040;2023-09-08T09:21:51;93504.72;;;24.13
28305;BMP280;15569;42.652;23.040;2023-09-08T09:24:39;93513.03;;;24.09
28305;BMP280;15569;42.652;23.040;2023-09-08T09:27:12;93505.38;;;24.10
28305;BMP280;15569;42.652;23.040;2023-09-08T09:29:48;93508.28;;;24.38
28305;BMP280;15569;42.652;23.040;2023-09-08T09:32:14;93501.34;;;24.57
28305;BMP280;15569;42.652;23.040;2023-09-08T09:34:52;93500.69;;;24.71
28305;BMP280;15569;42.652;23.040;2023-09-08T09:37:19;93502.78;;;24.90
28305;BMP280;15569;42.652;23.040;2023-09-08T09:39:51;93496.53;;;24.84
28305;BMP280;15569;42.652;23.040;2023-09-08T09:42:17;93488.91;;;25.02
28305;BMP280;15569;42.652;23.040;2023-09-08T09:44:43;93486.81;;;24.89
28305;BMP280;15569;42.652;23.040;2023-09-08T09:47:08;93480.53;;;24.90
28305;BMP280;15569;42.652;23.040;2023-09-08T09:49:45;93488.19;;;25.18
28305;BMP280;15569;42.652;23.040;2023-09-08T09:52:20;93478.47;;;25.37
28305;BMP280;15569;42.652;23.040;2023-09-08T09:54:46;93486.75;;;25.59
28305;BMP280;15569;42.652;23.040;2023-09-08T09:57:14;93488.13;;;25.62
28305;BMP280;15569;42.652;23.040;2023-09-08T09:59:43;93483.91;;;25.81
28305;BMP280;15569;42.652;23.040;2023-09-08T10:02:13;93470.66;;;25.81
28305;BMP280;15569;42.652;23.040;2023-09-08T10:04:39;93487.41;;;25.73
28305;BMP280;15569;42.652;23.040;2023-09-08T10:07:05;93472.78;;;25.79
28305;BMP280;15569;42.652;23.040;2023-09-08T10:09:31;93480.38;;;25.90
28305;BMP280;15569;42.652;23.040;2023-09-08T10:12:01;93466.50;;;25.82
28305;BMP280;15569;42.652;23.040;2023-09-08T10:14:28;93451.88;;;25.76
28305;BMP280;15569;42.652;23.040;2023-09-08T10:16:57;93475.50;;;25.99
28305;BMP280;15569;42.652;23.040;2023-09-08T10:19:25;93467.84;;;25.92
28305;BMP280;15569;42.652;23.040;2023-09-08T10:21:51;93453.94;;;25.83
28305;BMP280;15569;42.652;23.040;2023-09-08T10:24:27;93469.91;;;26.01
28305;BMP280;15569;42.652;23.040;2023-09-08T10:27:15;93461.47;;;26.19
28305;BMP280;15569;42.652;23.040;2023-09-08T10:29:44;93462.19;;;26.10
28305;BMP280;15569;42.652;23.040;2023-09-08T10:32:10;93449.09;;;25.84
28305;BMP280;15569;42.652;23.040;2023-09-08T10:34:36;93459.41;;;26.10
28305;BMP280;15569;42.652;23.040;2023-09-08T10:37:02;93445.44;;;26.22
28305;BMP280;15569;42.652;23.040;2023-09-08T10:39:32;93439.94;;;26.08
28305;BMP280;15569;42.652;23.040;2023-09-08T10:44:44;93451.78;;;26.04
28305;BMP280;15569;42.652;23.040;2023-09-08T10:47:39;93424.56;;;26.13
28305;BMP280;15569;42.652;23.040;2023-09-08T10:50:06;93446.03;;;26.32
28305;BMP280;15569;42.652;23.040;2023-09-08T10:52:34;93445.97;;;26.44
28305;BMP280;15569;42.652;23.040;2023-09-08T10:55:00;93436.75;;;26.66
28305;BMP280;15569;42.652;23.040;2023-09-08T10:57:27;93438.78;;;26.75
28305;BMP280;15569;42.652;23.040;2023-09-08T10:59:57;93429.75;;;26.73
28305;BMP280;15569;42.652;23.040;2023-09-08T11:02:37;93430.56;;;26.57
28305;BMP280;15569;42.652;23.040;2023-09-08T11:05:06;93442.94;;;26.78
28305;BMP280;15569;42.652;23.040;2023-09-08T11:07:32;93422.34;;;27.20
28305;BMP280;15569;42.652;23.040;2023-09-08T11:09:59;93428.28;;;27.48
28305;BMP280;15569;42.652;23.040;2023-09-08T11:12:28;93422.53;;;27.67
28305;BMP280;15569;42.652;23.040;2023-09-08T11:14:54;93418.66;;;27.37
28305;BMP280;15569;42.652;23.040;2023-09-08T11:17:20;93412.84;;;26.91
28305;BMP280;15569;42.652;23.040;2023-09-08T11:19:47;93409.84;;;27.15
28305;BMP280;15569;42.652;23.040;2023-09-08T11:22:14;93409.13;;;27.16
28305;BMP280;15569;42.652;23.040;2023-09-08T11:24:41;93414.25;;;26.90
28305;BMP280;15569;42.652;23.040;2023-09-08T11:27:08;93419.97;;;27.46
28305;BMP280;15569;42.652;23.040;2023-09-08T11:29:33;93410.31;;;27.35
28305;BMP280;15569;42.652;23.040;2023-09-08T11:31:59;93406.03;;;27.42
28305;BMP280;15569;42.652;23.040;2023-09-08T11:34:25;93403.72;;;27.63
28305;BMP280;15569;42.652;23.040;2023-09-08T11:36:50;93395.06;;;27.24
28305;BMP280;15569;42.652;23.040;2023-09-08T11:39:18;93393.78;;;27.13
28305;BMP280;15569;42.652;23.040;2023-09-08T11:41:43;93397.03;;;27.38
28305;BMP280;15569;42.652;23.040;2023-09-08T11:44:08;93408.50;;;27.68
28305;BMP280;15569;42.652;23.040;2023-09-08T11:46:34;93392.75;;;27.43
28305;BMP280;15569;42.652;23.040;2023-09-08T11:49:00;93397.59;;;27.50
28305;BMP280;15569;42.652;23.040;2023-09-08T11:51:26;93396.28;;;27.41
28305;BMP280;15569;42.652;23.040;2023-09-08T11:53:52;93407.84;;;27.66
28305;BMP280;15569;42.652;23.040;2023-09-08T11:56:18;93401.47;;;27.74
28305;BMP280;15569;42.652;23.040;2023-09-08T11:58:44;93397.94;;;27.77
28305;BMP280;15569;42.652;23.040;2023-09-08T12:01:10;93389.88;;;28.06
28305;BMP280;15569;42.652;23.040;2023-09-08T12:03:51;93389.47;;;28.32
28305;BMP280;15569;42.652;23.040;2023-09-08T12:06:16;93381.34;;;27.63
28305;BMP280;15569;42.652;23.040;2023-09-08T12:08:41;93380.06;;;28.07
28305;BMP280;15569;42.652;23.040;2023-09-08T12:11:09;93371.22;;;28.37
28305;BMP280;15569;42.652;23.040;2023-09-08T12:13:35;93384.03;;;28.66
28305;BMP280;15569;42.652;23.040;2023-09-08T12:16:00;93380.31;;;28.80
28305;BMP280;15569;42.652;23.040;2023-09-08T12:18:39;93367.47;;;28.95
28305;BMP280;15569;42.652;23.040;2023-09-08T12:21:05;93374.97;;;28.66
28305;BMP280;15569;42.652;23.040;2023-09-08T12:23:31;93366.47;;;28.70
28305;BMP280;15569;42.652;23.040;2023-09-08T12:25:57;93361.69;;;28.64
28305;BMP280;15569;42.652;23.040;2023-09-08T12:28:23;93363.72;;;28.68
28305;BMP280;15569;42.652;23.040;2023-09-08T12:30:51;93369.03;;;28.43
28305;BMP280;15569;42.652;23.040;2023-09-08T12:33:18;93373.38;;;28.36
28305;BMP280;15569;42.652;23.040;2023-09-08T12:35:46;93355.25;;;28.74
28305;BMP280;15569;42.652;23.040;2023-09-08T12:38:13;93373.53;;;28.67
28305;BMP280;15569;42.652;23.040;2023-09-08T12:40:39;93357.81;;;28.86
28305;BMP280;15569;42.652;23.040;2023-09-08T12:43:05;93343.19;;;28.41
28305;BMP280;15569;42.652;23.040;2023-09-08T12:45:31;93348.97;;;28.29
28305;BMP280;15569;42.652;23.040;2023-09-08T12:48:01;93349.22;;;28.57
28305;BMP280;15569;42.652;23.040;2023-09-08T12:50:27;93346.44;;;28.96
28305;BMP280;15569;42.652;23.040;2023-09-08T12:52:53;93353.34;;;29.01
28305;BMP280;15569;42.652;23.040;2023-09-08T12:55:19;93354.00;;;29.03
28305;BMP280;15569;42.652;23.040;2023-09-08T12:57:44;93365.06;;;29.46
28305;BMP280;15569;42.652;23.040;2023-09-08T13:00:10;93362.25;;;29.46
28305;BMP280;15569;42.652;23.040;2023-09-08T13:02:35;93361.53;;;29.80
28305;BMP280;15569;42.652;23.040;2023-09-08T13:05:02;93357.69;;;29.63
28305;BMP280;15569;42.652;23.040;2023-09-08T13:07:27;93362.38;;;29.40
28305;BMP280;15569;42.652;23.040;2023-09-08T13:09:53;93363.38;;;29.61
28305;BMP280;15569;42.652;23.040;2023-09-08T13:12:18;93365.47;;;29.60
28305;BMP280;15569;42.652;23.040;2023-09-08T13:14:44;93355.91;;;29.80
28305;BMP280;15569;42.652;23.040;2023-09-08T13:17:10;93359.22;;;29.56
28305;BMP280;15569;42.652;23.040;2023-09-08T13:19:36;93353.38;;;28.99
28305;BMP280;15569;42.652;23.040;2023-09-08T13:22:06;93330.41;;;28.52
28305;BMP280;15569;42.652;23.040;2023-09-08T13:24:32;93364.19;;;28.42
28305;BMP280;15569;42.652;23.040;2023-09-08T13:26:59;93357.22;;;28.79
28305;BMP280;15569;42.652;23.040;2023-09-08T13:29:24;93355.59;;;28.52
28305;BMP280;15569;42.652;23.040;2023-09-08T13:31:52;93353.19;;;29.09
28305;BMP280;15569;42.652;23.040;2023-09-08T13:34:17;93351.38;;;28.93
28305;BMP280;15569;42.652;23.040;2023-09-08T13:36:42;93351.31;;;29.34
28305;BMP280;15569;42.652;23.040;2023-09-08T13:39:08;93355.28;;;28.72
28305;BMP280;15569;42.652;23.040;2023-09-08T13:44:09;93345.56;;;29.40
28305;BMP280;15569;42.652;23.040;2023-09-08T13:46:35;93360.28;;;29.04
28305;BMP280;15569;42.652;23.040;2023-09-08T13:49:00;93354.53;;;28.33
28305;BMP280;15569;42.652;23.040;2023-09-08T13:51:25;93344.47;;;28.05
28305;BMP280;15569;42.652;23.040;2023-09-08T13:53:51;93354.91;;;28.09
28305;BMP280;15569;42.652;23.040;2023-09-08T13:56:16;93355.13;;;29.18
28305;BMP280;15569;42.652;23.040;2023-09-08T13:58:41;93349.25;;;29.30
28305;BMP280;15569;42.652;23.040;2023-09-08T14:01:10;93349.88;;;28.98
28305;BMP280;15569;42.652;23.040;2023-09-08T14:03:35;93350.88;;;28.42
28305;BMP280;15569;42.652;23.040;2023-09-08T14:06:01;93342.50;;;28.40